ADDS METAR Data INFO
IDs: Format: Raw Decoded Include TAF

Data at: 2112 UTC 22 Oct 2017

K4M9 221915Z AUTO 29007KT 10SM BKN027 22/17 A2996 RMK AO2 PWINO
K4M9 221755Z AUTO 25007KT 10SM CLR 21/18 A2999 RMK AO2 PWINO
K4M9 221735Z AUTO 28008G14KT 10SM CLR 22/18 A2998 RMK AO2 PWINO
K4M9 221715Z AUTO 25006KT 10SM CLR 23/18 A2999 RMK AO2 PWINO
K4M9 221655Z AUTO 13007KT 10SM CLR 22/18 A2997 RMK AO2 PWINO
K4M9 221635Z AUTO 00000KT 10SM CLR 21/18 A2998 RMK AO2 PWINO
K4M9 221615Z AUTO 00000KT 10SM CLR 20/17 A2998 RMK AO2 PWINO
K4M9 221555Z AUTO 26006KT 10SM CLR 21/18 A2998 RMK AO2 PWINO
K4M9 221535Z AUTO VRB04KT 10SM CLR 21/18 A2998 RMK AO2 PWINO
K4M9 221115Z AUTO 23013KT 10SM FEW013 SCT025 BKN037 18/18 A2993 RMK AO2 PWINO
K4M9 221055Z AUTO 21018G25KT 3SM BR FEW010 BKN023 OVC046 19/19 A2992 RMK AO2 PWINO
K4M9 221035Z AUTO 16024G35KT 9SM OVC024 22/20 A2988 RMK AO2 PWINO
K4M9 221015Z AUTO 16019G35KT 5SM BR FEW004 BKN024 OVC060 22/20 A2990 RMK AO2 LTG DSNT N AND S AND W PWINO
K4M9 220855Z AUTO 17015G22KT 10SM BKN029 BKN039 OVC055 22/20 A2994 RMK AO2 LTG DSNT SW PWINO
K4M9 220835Z AUTO 17016G24KT 10SM FEW026 SCT043 BKN055 23/20 A2994 RMK AO2 PWINO
K4M9 220715Z AUTO 16014G23KT 10SM FEW034 SCT040 OVC055 23/19 A2995 RMK AO2 PWINO
K4M9 220555Z AUTO 16012G21KT 10SM BKN060 OVC070 23/19 A2999 RMK AO2 PWINO
K4M9 220535Z AUTO 16012G18KT 10SM BKN070 22/19 A2999 RMK AO2 PWINO
K4M9 220515Z AUTO 16012KT 10SM BKN070 22/19 A2999 RMK AO2 PWINO
K4M9 220455Z AUTO 15012G20KT 10SM OVC070 23/19 A3000 RMK AO2 PWINO
K4M9 220435Z AUTO 16013G19KT 10SM BKN070 23/19 A3000 RMK AO2 PWINO
K4M9 220315Z AUTO 14015KT 10SM BKN090 23/18 A3000 RMK AO2 PWINO
K4M9 220255Z AUTO 15013G21KT 10SM SCT090 23/18 A3001 RMK AO2 PWINO
K4M9 220235Z AUTO 15018G24KT 10SM FEW070 FEW090 23/18 A3001 RMK AO2 PWINO
K4M9 220215Z AUTO 15018KT 10SM FEW060 FEW075 BKN090 23/18 A3002 RMK AO2 PWINO
K4M9 220055Z AUTO 14011KT 10SM CLR 24/18 A3002 RMK AO2 PWINO
K4M9 220035Z AUTO 15012KT 10SM SCT090 24/18 A3002 RMK AO2 LTG DSNT N AND S PWINO
K4M9 212215Z AUTO 16013KT 10SM CLR 27/18 A3000 RMK AO2 PWINO
K4M9 212055Z AUTO 17011G18KT 10SM CLR 29/18 A3001 RMK AO2 PWINO
K4M9 212035Z AUTO 18015KT 10SM CLR 29/19 A3001 RMK AO2 PWINO
K4M9 212015Z AUTO 18014G19KT 10SM CLR 29/19 A3002 RMK AO2 PWINO
K4M9 211955Z AUTO 20016G21KT 10SM CLR 28/19 A3002 RMK AO2 PWINO
K4M9 211835Z AUTO 18013G19KT 10SM CLR 28/19 A3005 RMK AO2 PWINO
K4M9 211815Z AUTO 19011G17KT 10SM CLR 28/19 A3005 RMK AO2 PWINO
K4M9 211655Z AUTO 19013G19KT 10SM CLR 26/18 A3008 RMK AO2 PWINO
K4M9 211635Z AUTO 18010KT 10SM CLR 25/17 A3009 RMK AO2 PWINO
K4M9 211415Z AUTO 15008KT 10SM CLR 19/15 A3011 RMK AO2 PWINO
K4M9 211355Z AUTO 15009KT 10SM CLR 19/15 A3011 RMK AO2 PWINO
K4M9 211335Z AUTO 15006KT 10SM CLR 18/15 A3011 RMK AO2 PWINO
K4M9 211315Z AUTO 15004KT 4SM HZ FEW040 18/15 A3011 RMK AO2 PWINO
K4M9 211155Z AUTO 16005KT 6SM HZ SCT049 17/14 A3009 RMK AO2 PWINO
K4M9 211135Z AUTO 16005KT 5SM HZ FEW040 SCT049 17/14 A3009 RMK AO2 PWINO
K4M9 211115Z AUTO 15006KT 4SM HZ SCT039 SCT046 BKN055 17/14 A3008 RMK AO2 PWINO
K4M9 211055Z AUTO 16005KT 6SM HZ SCT043 BKN055 17/14 A3008 RMK AO2 PWINO
K4M9 211035Z AUTO 18005KT 5SM HZ FEW040 FEW047 SCT055 17/14 A3008 RMK AO2 PWINO
K4M9 211015Z AUTO 16003KT 5SM HZ FEW040 FEW048 17/14 A3007 RMK AO2 PWINO
K4M9 210955Z AUTO 00000KT 6SM HZ SCT048 17/14 A3007 RMK AO2 PWINO
K4M9 210935Z AUTO 17004KT 7SM CLR 17/14 A3007 RMK AO2 PWINO
K4M9 210915Z AUTO 16005KT 6SM HZ CLR 17/14 A3007 RMK AO2 PWINO